createdAt,value
2023-03-17T00:04:55.179Z,99084.16
2023-03-17T00:10:02.149Z,99086.75
2023-03-17T00:15:08.135Z,99084.16
2023-03-17T00:20:19.141Z,99084.31
2023-03-17T00:25:31.216Z,99089.97
2023-03-17T00:30:36.251Z,99091.13
2023-03-17T00:35:41.865Z,99088.28
2023-03-17T00:40:47.598Z,99087.50
2023-03-17T00:45:51.252Z,99091.22
2023-03-17T00:50:59.758Z,99089.31
2023-03-17T00:56:15.679Z,99102.13
2023-03-17T01:01:20.799Z,99102.16
2023-03-17T01:06:24.774Z,99088.38
2023-03-17T01:11:30.739Z,99109.78
2023-03-17T01:16:35.552Z,99102.91
2023-03-17T01:21:39.600Z,99109.09
2023-03-17T01:26:46.940Z,99115.41
2023-03-17T01:31:53.130Z,99124.72
2023-03-17T01:37:00.166Z,99130.66
2023-03-17T01:42:06.106Z,99140.09
2023-03-17T01:47:11.544Z,99138.66
2023-03-17T01:52:18.019Z,99134.28
2023-03-17T01:57:29.927Z,99148.22
2023-03-17T02:02:37.908Z,99146.00
2023-03-17T02:07:43.000Z,99148.66
2023-03-17T02:12:54.292Z,99152.94
2023-03-17T02:17:58.748Z,99158.84
2023-03-17T02:23:05.236Z,99167.16
2023-03-17T02:28:17.604Z,99163.94
2023-03-17T02:33:21.977Z,99170.53
2023-03-17T02:38:28.714Z,99169.06
2023-03-17T02:43:32.853Z,99170.63
2023-03-17T02:48:39.954Z,99189.13
2023-03-17T02:53:45.812Z,99190.25
2023-03-17T02:58:52.190Z,99185.22
2023-03-17T03:03:57.800Z,99181.00
2023-03-17T03:09:03.990Z,99180.09
2023-03-17T03:14:09.908Z,99191.94
2023-03-17T03:19:14.834Z,99187.31
2023-03-17T03:24:20.580Z,99182.34
2023-03-17T03:29:24.906Z,99191.00
2023-03-17T03:34:29.276Z,99193.47
2023-03-17T03:39:35.831Z,99191.03
2023-03-17T03:44:40.010Z,99191.00
2023-03-17T03:49:43.838Z,99197.03
2023-03-17T03:54:50.551Z,99200.25
2023-03-17T03:59:54.960Z,99193.34
2023-03-17T04:04:59.212Z,99204.59
2023-03-17T04:10:05.305Z,99207.00
2023-03-17T04:15:12.213Z,99218.13
2023-03-17T04:20:18.093Z,99226.09
2023-03-17T04:25:24.633Z,99232.75
2023-03-17T04:30:29.024Z,99232.94
2023-03-17T04:35:34.953Z,99235.47
2023-03-17T04:40:41.101Z,99243.13
2023-03-17T04:45:45.564Z,99251.00
2023-03-17T04:50:49.779Z,99258.69
2023-03-17T04:55:58.444Z,99260.66
2023-03-17T05:01:03.849Z,99257.28
2023-03-17T05:06:08.648Z,99267.69
2023-03-17T05:11:14.483Z,99271.25
2023-03-17T05:16:21.911Z,99267.56
2023-03-17T05:21:26.571Z,99279.88
2023-03-17T05:26:32.616Z,99280.88
2023-03-17T05:31:37.769Z,99287.97
2023-03-17T05:36:46.936Z,99285.63
2023-03-17T05:42:01.758Z,99289.75
2023-03-17T05:47:40.087Z,99302.81
2023-03-17T05:52:49.881Z,99302.81
2023-03-17T05:58:16.050Z,99305.56
2023-03-17T06:03:27.281Z,99322.16
2023-03-17T06:08:35.364Z,99330.78
2023-03-17T06:13:42.518Z,99331.03
2023-03-17T06:18:47.247Z,99329.25
2023-03-17T06:23:52.680Z,99332.88
2023-03-17T06:28:58.296Z,99343.34
2023-03-17T06:34:03.362Z,99354.28
2023-03-17T06:39:09.284Z,99352.41
2023-03-17T06:44:15.727Z,99349.22
2023-03-17T06:49:19.938Z,99355.50
2023-03-17T06:54:25.687Z,99358.94
2023-03-17T07:43:27.078Z,99346.50
2023-03-17T08:03:08.992Z,99359.53
2023-03-17T08:08:42.011Z,99371.28
2023-03-17T08:13:47.052Z,99367.78
2023-03-17T08:19:00.859Z,99364.84
2023-03-17T08:24:10.368Z,99362.41
2023-03-17T08:29:22.030Z,99365.41
2023-03-17T08:34:31.783Z,99386.19
2023-03-17T08:39:36.823Z,99372.31
2023-03-17T08:44:42.866Z,99378.94
2023-03-17T08:50:05.729Z,99385.84
2023-03-17T08:55:13.978Z,99381.28
2023-03-17T09:00:20.724Z,99389.66
2023-03-17T09:05:45.227Z,99383.44
2023-03-17T09:10:50.793Z,99376.19
2023-03-17T09:15:54.872Z,99368.34
2023-03-17T09:21:17.505Z,99365.56
2023-03-17T09:26:25.007Z,99357.97
2023-03-17T09:31:30.594Z,99364.00
2023-03-17T09:36:37.952Z,99359.13
2023-03-17T09:41:59.845Z,99370.00
2023-03-17T09:47:21.145Z,99374.59
2023-03-17T09:52:32.824Z,99343.28
2023-03-17T09:57:38.976Z,99347.78
2023-03-17T10:08:55.779Z,99341.97
2023-03-17T10:14:06.230Z,99344.91
2023-03-17T10:19:22.370Z,99343.19
2023-03-17T10:24:33.338Z,99345.63
2023-03-17T10:29:38.527Z,99336.91
2023-03-17T10:34:43.990Z,99343.97
2023-03-17T10:39:53.370Z,99332.84
2023-03-17T10:45:02.233Z,99334.63
2023-03-17T10:50:24.523Z,99333.88
2023-03-17T10:55:34.615Z,99335.44
2023-03-17T11:00:39.964Z,99338.81
2023-03-17T11:05:57.679Z,99338.88
2023-03-17T11:11:08.658Z,99332.81
2023-03-17T11:17:40.359Z,99328.31
2023-03-17T11:44:59.456Z,99319.56
2023-03-17T11:50:09.689Z,99312.84
2023-03-17T11:55:20.264Z,99309.38
2023-03-17T12:00:33.150Z,99308.59
2023-03-17T12:05:38.508Z,99314.56
2023-03-17T12:10:46.056Z,99312.84
2023-03-17T12:15:55.643Z,99303.31
2023-03-17T12:21:04.639Z,99305.97
2023-03-17T12:26:13.839Z,99302.47
2023-03-17T12:31:22.944Z,99310.31
2023-03-17T12:36:27.326Z,99312.81
2023-03-17T12:42:10.084Z,99313.78
2023-03-17T12:47:32.601Z,99320.69
2023-03-17T12:52:53.033Z,99317.31
2023-03-17T12:58:04.668Z,99323.34
2023-03-17T13:03:20.346Z,99309.50
2023-03-17T13:08:28.341Z,99304.19
2023-03-17T13:13:41.685Z,99312.09
2023-03-17T13:18:51.339Z,99302.63
2023-03-17T13:24:00.303Z,99302.53
2023-03-17T13:29:23.807Z,99300.75
2023-03-17T13:34:30.049Z,99305.13
2023-03-17T13:40:11.025Z,99296.56
2023-03-17T13:45:38.578Z,99294.84
2023-03-17T13:50:43.933Z,99285.28
2023-03-17T13:56:09.792Z,99280.91
2023-03-17T14:01:15.712Z,99288.78
2023-03-17T14:06:26.948Z,99306.16
2023-03-17T14:11:49.559Z,99299.22
2023-03-17T14:17:10.996Z,99309.63
2023-03-17T14:22:25.691Z,99306.09
2023-03-17T14:27:37.897Z,99317.38
2023-03-17T14:32:49.146Z,99314.63
2023-03-17T14:38:02.989Z,99312.66
2023-03-17T14:43:07.005Z,99313.56
2023-03-17T14:48:28.891Z,99312.59
2023-03-17T14:53:42.881Z,99312.69
2023-03-17T14:58:51.648Z,99322.88
2023-03-17T15:04:02.733Z,99326.22
2023-03-17T15:09:19.681Z,99335.63
2023-03-17T15:14:32.105Z,99331.31
2023-03-17T15:19:42.905Z,99337.28
2023-03-17T15:25:00.903Z,99335.34
2023-03-17T15:30:15.882Z,99344.75
2023-03-17T15:35:26.752Z,99351.50
2023-03-17T15:40:34.136Z,99349.97
2023-03-17T15:45:42.066Z,99356.00
2023-03-17T15:50:51.521Z,99357.53
2023-03-17T15:56:03.100Z,99356.59
2023-03-17T16:01:07.704Z,99359.88
2023-03-17T16:06:18.386Z,99352.88
2023-03-17T16:11:29.536Z,99348.38
2023-03-17T16:16:37.451Z,99360.56
2023-03-17T16:21:51.495Z,99359.59
2023-03-17T16:26:58.798Z,99363.81
2023-03-17T16:32:09.835Z,99369.00
2023-03-17T16:37:23.232Z,99368.13
2023-03-17T16:42:29.084Z,99375.09
2023-03-17T16:47:33.188Z,99371.59
2023-03-17T16:52:39.930Z,99380.19
2023-03-17T16:57:59.058Z,99386.97
2023-03-17T17:03:03.413Z,99388.66
2023-03-17T17:08:10.234Z,99392.88
2023-03-17T17:13:20.287Z,99391.22
2023-03-17T17:18:28.242Z,99392.00
2023-03-17T17:23:33.850Z,99384.22
2023-03-17T17:28:40.549Z,99389.38
2023-03-17T17:33:45.330Z,99392.81
2023-03-17T17:46:33.394Z,99397.78
2023-03-17T17:53:21.378Z,99412.28
2023-03-17T17:59:18.305Z,99410.34
2023-03-17T18:04:34.792Z,99420.63
2023-03-17T18:15:19.652Z,99416.56
2023-03-17T18:20:36.097Z,99414.63
2023-03-17T18:25:48.420Z,99413.56
2023-03-17T18:36:17.218Z,99413.16
2023-03-17T18:41:27.592Z,99423.56
2023-03-17T18:46:47.034Z,99419.03
2023-03-17T18:52:02.224Z,99426.38
2023-03-17T18:57:11.856Z,99428.03
2023-03-17T19:02:19.276Z,99420.88
2023-03-17T19:07:25.339Z,99438.50
2023-03-17T19:12:39.614Z,99430.41
2023-03-17T19:17:47.031Z,99427.78
2023-03-17T19:22:55.893Z,99429.22
2023-03-17T19:28:08.044Z,99432.44
2023-03-17T19:33:13.156Z,99437.41
2023-03-17T19:38:26.215Z,99444.34
2023-03-17T19:43:43.016Z,99440.94
2023-03-17T19:48:48.570Z,99440.50
2023-03-17T19:53:58.754Z,99448.19
2023-03-17T19:59:04.978Z,99443.63
2023-03-17T20:04:17.858Z,99442.69
2023-03-17T20:09:39.498Z,99434.34
2023-03-17T20:14:56.384Z,99429.25
2023-03-17T20:20:09.407Z,99438.47
2023-03-17T20:25:29.200Z,99436.56
2023-03-17T20:30:39.300Z,99436.13
2023-03-17T20:35:48.420Z,99441.78
2023-03-17T20:41:13.768Z,99440.03
2023-03-17T20:46:26.499Z,99431.69
2023-03-17T20:51:41.469Z,99430.81
2023-03-17T20:56:53.353Z,99432.13
2023-03-17T21:02:00.173Z,99437.69
2023-03-17T21:07:10.517Z,99432.13
2023-03-17T21:12:19.830Z,99431.78
2023-03-17T21:17:26.966Z,99428.56
2023-03-17T21:22:41.797Z,99425.97
2023-03-17T21:27:55.030Z,99424.06
2023-03-17T21:33:00.406Z,99428.03
2023-03-17T21:38:07.241Z,99427.09
2023-03-17T21:43:20.998Z,99424.69
2023-03-17T21:53:53.085Z,99417.50
2023-03-17T21:59:04.697Z,99421.56
2023-03-17T22:04:13.075Z,99416.22
2023-03-17T22:09:23.099Z,99419.28
2023-03-17T22:14:36.946Z,99421.34
2023-03-17T22:19:48.766Z,99422.75
2023-03-17T22:24:55.885Z,99421.19
2023-03-17T22:30:15.759Z,99422.56
2023-03-17T22:35:25.972Z,99425.97
2023-03-17T22:40:42.941Z,99423.31
2023-03-17T22:46:10.226Z,99435.47
2023-03-17T22:51:19.053Z,99441.88
2023-03-17T22:56:26.381Z,99439.47
2023-03-17T23:01:38.474Z,99438.16
2023-03-17T23:06:53.875Z,99435.72
2023-03-17T23:17:21.928Z,99435.00
2023-03-17T23:22:26.601Z,99435.31
2023-03-17T23:27:32.239Z,99439.38
2023-03-17T23:38:05.095Z,99435.66
2023-03-17T23:43:22.060Z,99439.56
2023-03-17T23:48:35.582Z,99429.13
2023-03-17T23:53:49.455Z,99424.66
2023-03-17T23:59:00.082Z,99419.91
